Time;durP1;ratioP1;P1;durP2;ratioP2;P2;SDS_P1;SDS_P2;PMS_P1;PMS_P2;Temp;Humidity;BMP_temperature;BMP_pressure;BME280_temperature;BME280_humidity;BME280_pressure;Samples;Min_cycle;Max_cycle;Signal;HPM_P1;HPM_P2
2022/06/03 00:00:03;;;;;;;;;;;;;;;22.06;71.08;99774.03;5051016;28;19912;-88
2022/06/03 00:02:47;;;;;;;;;;;;;;;21.85;72.01;99775.34;5049601;28;19921;-89
2022/06/03 00:05:15;;;;;;;;;;;;;;;21.95;71.39;99782.75;5050318;28;19913;-85
2022/06/03 00:07:52;;;;;;;;;;;;;;;21.89;70.11;99780.44;5049341;28;19920;-88
2022/06/03 00:10:31;;;;;;;;;;;;;;;21.82;69.71;99773.69;5049924;28;19920;-87
2022/06/03 00:13:12;;;;;;;;;;;;;;;21.74;68.81;99758.06;5040253;28;19924;-86
2022/06/03 00:15:54;;;;;;;;;;;;;;;21.86;68.81;99761.84;5026259;28;19920;-85
2022/06/03 00:18:38;;;;;;;;;;;;;;;21.82;67.87;99760.28;5016877;28;19916;-87
2022/06/03 00:21:07;;;;;;;;;;;;;;;21.84;67.51;99763.72;5050611;28;19917;-85
2022/06/03 00:23:51;;;;;;;;;;;;;;;21.84;66.79;99763.72;5031058;28;20377;-85
2022/06/03 00:26:22;;;;;;;;;;;;;;;21.85;66.27;99761.94;5050738;28;19948;-85
2022/06/03 00:28:51;;;;;;;;;;;;;;;21.82;66.29;99763.81;5016259;28;20307;-85
2022/06/03 00:31:25;;;;;;;;;;;;;;;21.86;65.56;99763.63;5048726;28;19974;-85
2022/06/03 00:33:56;;;;;;;;;;;;;;;22.04;65.30;99762.50;5048541;28;19921;-87
2022/06/03 00:36:31;;;;;;;;;;;;;;;22.09;64.84;99762.22;5050103;28;19913;-87
2022/06/03 00:39:00;;;;;;;;;;;;;;;22.06;65.27;99759.72;5030984;28;19924;-86
2022/06/03 00:41:31;;;;;;;;;;;;;;;21.93;65.09;99762.31;5048401;28;19938;-85
2022/06/03 00:44:12;;;;;;;;;;;;;;;22.02;65.32;99764.44;5048942;28;19913;-86
2022/06/03 00:46:37;;;;;;;;;;;;;;;21.99;64.15;99768.16;5049338;28;20062;-87
2022/06/03 00:49:08;;;;;;;;;;;;;;;21.86;64.05;99767.19;5033223;28;20000;-86
2022/06/03 00:51:52;;;;;;;;;;;;;;;21.87;64.28;99758.16;5045430;28;19921;-85
2022/06/03 00:54:24;;;;;;;;;;;;;;;21.82;64.77;99760.28;5048200;28;19920;-85
2022/06/03 00:57:07;;;;;;;;;;;;;;;21.72;64.56;99757.31;5048750;28;19970;-85
2022/06/03 00:59:51;;;;;;;;;;;;;;;21.54;64.80;99761.09;5031091;28;19920;-84
2022/06/03 01:02:19;;;;;;;;;;;;;;;21.44;65.11;99763.41;5048448;28;20756;-83
2022/06/03 01:05:16;;;;;;;;;;;;;;;21.59;64.78;99765.19;5048390;28;19963;-84
2022/06/03 01:07:59;;;;;;;;;;;;;;;21.46;65.15;99759.69;5014214;28;19925;-84
2022/06/03 01:10:31;;;;;;;;;;;;;;;21.21;65.94;99751.31;5036717;28;19943;-84
2022/06/03 01:13:14;;;;;;;;;;;;;;;20.88;66.47;99745.16;5049359;28;19923;-85
2022/06/03 01:15:49;;;;;;;;;;;;;;;21.14;66.02;99753.50;5048539;28;19923;-85
2022/06/03 01:18:21;;;;;;;;;;;;;;;21.28;65.81;99748.19;5048387;28;19916;-86
2022/06/03 01:20:55;;;;;;;;;;;;;;;21.44;65.05;99752.66;5048542;28;19927;-83
2022/06/03 01:23:39;;;;;;;;;;;;;;;21.56;64.40;99748.44;5048248;28;19913;-87
2022/06/03 01:26:04;;;;;;;;;;;;;;;21.62;64.71;99753.44;5037413;28;19920;-85
2022/06/03 01:28:30;;;;;;;;;;;;;;;21.66;65.07;99746.03;5046167;28;19946;-85
2022/06/03 01:31:13;;;;;;;;;;;;;;;21.50;66.04;99748.78;5038204;28;20003;-86
2022/06/03 01:33:45;;;;;;;;;;;;;;;21.50;65.42;99740.75;5046573;28;19928;-84
2022/06/03 01:36:18;;;;;;;;;;;;;;;21.42;65.68;99731.28;5030614;28;19916;-86
2022/06/03 01:38:56;;;;;;;;;;;;;;;21.34;65.92;99736.25;5047508;28;20038;-86
2022/06/03 01:41:33;;;;;;;;;;;;;;;21.13;66.57;99729.47;5034640;28;20413;-87
2022/06/03 01:44:09;;;;;;;;;;;;;;;21.25;66.57;99724.25;5029639;28;20035;-87
2022/06/03 01:46:55;;;;;;;;;;;;;;;21.28;66.39;99733.94;5010932;28;20019;-85
2022/06/03 01:49:43;;;;;;;;;;;;;;;21.36;66.09;99733.47;4987866;28;20383;-85
2022/06/03 01:52:09;;;;;;;;;;;;;;;21.19;66.31;99735.31;4991029;28;19916;-86
2022/06/03 01:54:43;;;;;;;;;;;;;;;21.34;65.61;99732.72;5044509;28;20371;-88
2022/06/03 01:57:27;;;;;;;;;;;;;;;21.28;65.83;99740.16;5024064;28;20371;-88
2022/06/03 01:59:52;;;;;;;;;;;;;;;21.17;66.09;99753.34;5025402;28;19928;-84
2022/06/03 02:02:23;;;;;;;;;;;;;;;21.10;66.39;99750.16;5048453;28;19917;-85
2022/06/03 02:05:05;;;;;;;;;;;;;;;21.05;66.61;99760.28;5028170;28;19920;-85
2022/06/03 02:07:33;;;;;;;;;;;;;;;21.02;66.68;99764.94;5030285;28;19976;-85
2022/06/03 02:10:04;;;;;;;;;;;;;;;20.88;66.68;99766.63;5047903;28;20390;-86
2022/06/03 02:12:48;;;;;;;;;;;;;;;20.83;67.06;99775.84;5028333;28;20457;-85
2022/06/03 02:15:40;;;;;;;;;;;;;;;20.85;66.97;99761.44;5010340;28;20385;-86
2022/06/03 02:18:24;;;;;;;;;;;;;;;20.89;67.46;99757.59;5024779;28;19974;-86
2022/06/03 02:21:05;;;;;;;;;;;;;;;20.70;68.14;99749.75;5029409;28;19927;-86
2022/06/03 02:23:42;;;;;;;;;;;;;;;20.50;68.14;99764.22;5029567;28;19928;-86
2022/06/03 02:26:08;;;;;;;;;;;;;;;20.55;68.33;99762.13;5011561;28;20023;-85
2022/06/03 02:28:45;;;;;;;;;;;;;;;20.64;67.59;99766.13;5045729;28;19995;-86
2022/06/03 02:31:29;;;;;;;;;;;;;;;20.60;68.11;99779.78;5047880;28;19916;-86
2022/06/03 02:34:22;;;;;;;;;;;;;;;20.42;67.73;99773.63;5028061;28;20407;-85
2022/06/03 02:37:06;;;;;;;;;;;;;;;20.34;68.22;99774.91;5027281;28;19989;-85
2022/06/03 02:39:49;;;;;;;;;;;;;;;20.45;68.33;99768.09;5038456;28;19978;-86
2022/06/03 02:42:30;;;;;;;;;;;;;;;20.48;67.86;99774.16;5045874;28;20411;-85
2022/06/03 02:45:14;;;;;;;;;;;;;;;20.58;67.93;99783.41;5047346;28;19944;-84
2022/06/03 02:47:57;;;;;;;;;;;;;;;20.52;68.35;99778.38;5046101;28;19920;-85
2022/06/03 02:50:41;;;;;;;;;;;;;;;20.51;68.52;99791.88;5035773;28;19921;-89
2022/06/03 02:53:06;;;;;;;;;;;;;;;20.50;68.63;99782.97;5034767;28;19921;-91
2022/06/03 02:55:49;;;;;;;;;;;;;;;20.47;68.90;99779.59;5009674;28;19928;-91
2022/06/03 02:58:34;;;;;;;;;;;;;;;20.58;68.88;99771.84;5027745;28;20367;-86
2022/06/03 03:01:18;;;;;;;;;;;;;;;20.49;68.77;99773.19;5021807;28;19920;-88
2022/06/03 03:04:09;;;;;;;;;;;;;;;20.54;68.81;99781.88;5026725;28;19917;-87
2022/06/03 03:06:35;;;;;;;;;;;;;;;20.61;68.36;99778.84;5001286;28;20511;-87
2022/06/03 03:09:19;;;;;;;;;;;;;;;20.41;68.53;99780.78;5015365;28;19967;-86
2022/06/03 03:11:59;;;;;;;;;;;;;;;20.46;68.62;99784.09;5031338;28;19913;-89
2022/06/03 03:14:40;;;;;;;;;;;;;;;20.34;68.89;99787.41;5015603;28;20387;-87
2022/06/03 03:17:14;;;;;;;;;;;;;;;20.44;68.82;99780.63;5037105;28;19952;-88
2022/06/03 03:19:58;;;;;;;;;;;;;;;20.58;68.22;99786.09;5035342;28;19969;-89
2022/06/03 03:22:27;;;;;;;;;;;;;;;20.57;68.08;99795.09;5028969;28;19920;-86
2022/06/03 03:24:59;;;;;;;;;;;;;;;20.58;68.36;99795.94;5046825;28;19916;-86
2022/06/03 03:27:30;;;;;;;;;;;;;;;20.49;68.25;99802.66;5047092;28;20450;-89
2022/06/03 03:30:02;;;;;;;;;;;;;;;20.53;67.87;99814.09;5046542;28;20390;-85
2022/06/03 03:32:30;;;;;;;;;;;;;;;20.66;67.89;99819.69;5041904;28;19925;-85
2022/06/03 03:35:01;;;;;;;;;;;;;;;20.68;67.77;99820.44;5046862;28;19927;-85
2022/06/03 03:37:45;;;;;;;;;;;;;;;20.75;67.95;99817.34;5046794;28;19969;-85
2022/06/03 03:40:10;;;;;;;;;;;;;;;20.77;67.49;99829.81;5026821;28;19943;-85
2022/06/03 03:42:35;;;;;;;;;;;;;;;20.78;68.12;99829.72;5009333;28;19924;-85
2022/06/03 03:45:09;;;;;;;;;;;;;;;21.04;67.03;99836.31;5027543;28;20452;-84
2022/06/03 03:47:53;;;;;;;;;;;;;;;20.98;68.22;99836.66;5030632;28;19920;-85
2022/06/03 03:50:18;;;;;;;;;;;;;;;21.08;68.39;99831.63;5028586;28;20764;-84
2022/06/03 03:52:43;;;;;;;;;;;;;;;21.11;67.92;99848.41;5025998;28;19949;-84
2022/06/03 03:55:14;;;;;;;;;;;;;;;21.26;67.53;99844.00;5026199;28;19920;-83
2022/06/03 03:57:58;;;;;;;;;;;;;;;21.51;66.92;99850.69;5046630;28;19919;-85
2022/06/03 04:00:42;;;;;;;;;;;;;;;21.79;66.55;99846.38;5039019;28;20011;-85
2022/06/03 04:03:07;;;;;;;;;;;;;;;21.95;66.40;99866.00;5031488;28;19925;-83
2022/06/03 04:05:33;;;;;;;;;;;;;;;21.78;68.39;99874.16;5025970;28;19948;-81
2022/06/03 04:08:10;;;;;;;;;;;;;;;21.94;68.12;99875.00;5026910;28;20016;-82
2022/06/03 04:10:48;;;;;;;;;;;;;;;21.87;67.51;99881.69;5037337;28;19946;-83
2022/06/03 04:13:23;;;;;;;;;;;;;;;21.90;68.14;99875.28;5026852;28;19928;-84
2022/06/03 04:16:00;;;;;;;;;;;;;;;22.07;68.79;99876.97;5028458;28;19917;-83
2022/06/03 04:18:42;;;;;;;;;;;;;;;22.27;69.06;99875.75;5038723;28;19921;-83
2022/06/03 04:21:29;;;;;;;;;;;;;;;22.41;69.74;99874.94;5050295;28;19924;-83
2022/06/03 04:24:14;;;;;;;;;;;;;;;22.61;69.20;99877.25;5043073;28;19917;-81
2022/06/03 04:26:57;;;;;;;;;;;;;;;22.89;67.89;99878.22;5038537;28;19921;-83
2022/06/03 04:29:36;;;;;;;;;;;;;;;22.90;67.46;99888.03;5029731;28;19925;-83
2022/06/03 04:32:04;;;;;;;;;;;;;;;22.77;67.36;99895.13;5017891;28;20394;-83
2022/06/03 04:34:57;;;;;;;;;;;;;;;23.04;66.65;99897.91;5029795;28;20391;-82
2022/06/03 04:37:34;;;;;;;;;;;;;;;23.33;66.45;99901.44;5028235;28;19952;-84
2022/06/03 04:40:12;;;;;;;;;;;;;;;23.69;64.51;99894.59;5029353;28;20630;-83
2022/06/03 04:42:43;;;;;;;;;;;;;;;23.92;63.51;99900.31;5027683;28;19948;-84
2022/06/03 04:45:17;;;;;;;;;;;;;;;24.36;61.92;99899.13;5029039;28;19917;-85
2022/06/03 04:47:51;;;;;;;;;;;;;;;24.57;59.92;99909.38;5028992;28;19932;-83
2022/06/03 04:50:35;;;;;;;;;;;;;;;24.26;63.57;99906.97;5027979;28;19921;-83
2022/06/03 04:53:01;;;;;;;;;;;;;;;24.11;64.12;99906.19;5029577;28;19917;-83
2022/06/03 04:55:29;;;;;;;;;;;;;;;24.37;63.05;99897.28;5028118;28;19931;-83
2022/06/03 04:58:11;;;;;;;;;;;;;;;24.73;61.17;99903.78;5029754;28;19916;-83
2022/06/03 05:00:48;;;;;;;;;;;;;;;24.88;59.14;99901.84;5029420;28;19916;-84
2022/06/03 05:03:20;;;;;;;;;;;;;;;24.94;58.75;99906.78;5028973;28;19921;-83
2022/06/03 05:05:52;;;;;;;;;;;;;;;25.05;58.87;99914.97;5028302;28;20054;-84
2022/06/03 05:08:38;;;;;;;;;;;;;;;25.23;56.92;99917.34;5029493;28;20023;-84
2022/06/03 05:11:12;;;;;;;;;;;;;;;25.47;56.47;99920.97;5028504;28;19925;-84
2022/06/03 05:13:42;;;;;;;;;;;;;;;25.61;56.31;99917.25;5029508;28;19975;-85
2022/06/03 05:16:26;;;;;;;;;;;;;;;25.59;57.41;99910.22;5010705;28;19955;-83
2022/06/03 05:18:51;;;;;;;;;;;;;;;25.95;56.53;99906.63;5029082;28;20307;-82
2022/06/03 05:21:22;;;;;;;;;;;;;;;26.38;54.74;99908.72;5011263;28;19916;-82
2022/06/03 05:23:55;;;;;;;;;;;;;;;26.68;53.83;99901.06;5029341;28;19912;-82
2022/06/03 05:26:39;;;;;;;;;;;;;;;27.20;52.68;99907.69;5010880;28;20494;-83
2022/06/03 05:29:23;;;;;;;;;;;;;;;27.14;51.20;99910.91;5029280;28;19920;-82
2022/06/03 05:32:07;;;;;;;;;;;;;;;27.45;50.60;99920.16;5028827;28;19924;-83
2022/06/03 05:34:32;;;;;;;;;;;;;;;27.78;49.20;99917.47;5011193;28;19971;-82
2022/06/03 05:37:15;;;;;;;;;;;;;;;27.77;49.33;99911.19;5028777;28;19967;-82
2022/06/03 05:39:47;;;;;;;;;;;;;;;27.87;49.59;99920.25;5029473;28;19948;-83
2022/06/03 05:42:30;;;;;;;;;;;;;;;27.78;49.67;99929.16;5028876;28;19966;-83
2022/06/03 05:45:17;;;;;;;;;;;;;;;27.87;49.47;99922.97;5028809;28;19936;-84
2022/06/03 05:47:48;;;;;;;;;;;;;;;28.25;48.72;99926.16;5028725;28;19921;-83
2022/06/03 05:50:13;;;;;;;;;;;;;;;28.38;49.46;99926.84;5028644;28;20399;-83
2022/06/03 05:52:54;;;;;;;;;;;;;;;28.28;49.16;99925.91;5028662;28;19917;-83
2022/06/03 05:55:23;;;;;;;;;;;;;;;28.81;47.22;99925.00;5028550;28;19924;-83
2022/06/03 05:58:07;;;;;;;;;;;;;;;29.25;46.22;99922.91;5028926;28;19920;-83
2022/06/03 06:00:44;;;;;;;;;;;;;;;29.58;45.32;99917.28;5028471;28;19917;-83
2022/06/03 06:03:25;;;;;;;;;;;;;;;29.62;46.02;99918.72;5010670;28;19917;-83
2022/06/03 06:05:58;;;;;;;;;;;;;;;30.03;46.62;99913.19;5028654;28;19924;-83
2022/06/03 06:08:43;;;;;;;;;;;;;;;29.25;46.23;99905.75;5028439;28;19917;-84
2022/06/03 06:11:20;;;;;;;;;;;;;;;29.11;46.93;99905.09;5027332;28;19923;-83
2022/06/03 06:13:52;;;;;;;;;;;;;;;29.20;47.32;99902.63;5028163;28;19921;-83
2022/06/03 06:16:22;;;;;;;;;;;;;;;29.19;46.23;99900.84;5028098;28;19916;-83
2022/06/03 06:19:00;;;;;;;;;;;;;;;29.19;44.58;99893.56;5027601;28;20003;-83
2022/06/03 06:21:26;;;;;;;;;;;;;;;29.10;44.98;99894.38;5027863;28;19978;-83
2022/06/03 06:23:51;;;;;;;;;;;;;;;29.44;44.78;99889.53;5027795;28;19917;-83
2022/06/03 06:26:22;;;;;;;;;;;;;;;29.96;45.08;99889.28;5028150;28;20425;-83
2022/06/03 06:29:03;;;;;;;;;;;;;;;29.98;45.49;99884.59;5046102;28;19924;-83
2022/06/03 06:31:34;;;;;;;;;;;;;;;30.24;44.79;99878.53;5048104;28;20014;-84
2022/06/03 06:34:18;;;;;;;;;;;;;;;30.15;43.20;99888.44;5046726;28;19928;-83
2022/06/03 06:37:03;;;;;;;;;;;;;;;30.28;46.12;99879.13;5047622;28;19917;-83
2022/06/03 06:39:28;;;;;;;;;;;;;;;30.45;44.75;99886.56;5029501;28;19978;-84
2022/06/03 06:42:14;;;;;;;;;;;;;;;30.49;47.54;99890.72;5047072;28;19925;-84
2022/06/03 06:44:52;;;;;;;;;;;;;;;30.23;43.83;99890.44;5047807;28;19913;-84
2022/06/03 06:47:17;;;;;;;;;;;;;;;29.87;44.19;99884.72;5047177;28;19950;-83
2022/06/03 06:49:43;;;;;;;;;;;;;;;30.20;46.63;99892.56;5028762;28;19920;-84
2022/06/03 06:52:11;;;;;;;;;;;;;;;30.39;43.49;99889.88;5047627;28;19913;-83
2022/06/03 06:54:46;;;;;;;;;;;;;;;30.38;45.39;99898.13;5046735;28;19921;-84
2022/06/03 06:57:14;;;;;;;;;;;;;;;31.12;43.87;99899.25;5047619;28;19917;-84
2022/06/03 06:59:43;;;;;;;;;;;;;;;30.87;41.67;99897.03;5048023;28;19955;-84
2022/06/03 07:02:15;;;;;;;;;;;;;;;31.05;42.80;99890.84;5046067;28;20314;-83
2022/06/03 07:05:09;;;;;;;;;;;;;;;31.20;42.09;99893.91;5047167;28;20523;-84
2022/06/03 07:07:38;;;;;;;;;;;;;;;31.80;41.07;99892.53;4992211;28;19922;-83
2022/06/03 07:10:22;;;;;;;;;;;;;;;31.32;42.15;99889.09;5046691;28;20337;-83
2022/06/03 07:12:47;;;;;;;;;;;;;;;31.31;41.42;99890.97;5047212;28;20658;-84
2022/06/03 07:15:22;;;;;;;;;;;;;;;31.44;40.97;99885.16;5046703;28;19966;-84
2022/06/03 07:20:46;;;;;;;;;;;;;;;31.71;40.00;99900.63;5046843;28;20475;-83
2022/06/03 07:23:14;;;;;;;;;;;;;;;31.75;44.93;99895.72;5047237;28;20030;-85
2022/06/03 07:25:47;;;;;;;;;;;;;;;31.98;40.79;99887.94;5046977;28;19924;-84
2022/06/03 07:28:29;;;;;;;;;;;;;;;32.31;39.70;99889.06;5047351;28;19920;-84
2022/06/03 07:31:06;;;;;;;;;;;;;;;33.08;39.55;99888.38;5047081;28;19962;-84
2022/06/03 07:33:31;;;;;;;;;;;;;;;33.06;38.51;99889.53;5046636;28;19917;-84
2022/06/03 07:36:01;;;;;;;;;;;;;;;32.27;37.81;99887.69;5047096;28;20410;-83
2022/06/03 07:38:45;;;;;;;;;;;;;;;32.20;35.97;99891.22;5046364;28;19920;-83
2022/06/03 07:41:27;;;;;;;;;;;;;;;32.35;36.34;99877.84;5047014;28;19947;-84
2022/06/03 07:44:07;;;;;;;;;;;;;;;32.58;35.35;99878.16;5046586;28;19924;-84
2022/06/03 07:46:49;;;;;;;;;;;;;;;32.75;37.29;99881.88;5047360;28;19912;-83
2022/06/03 07:49:15;;;;;;;;;;;;;;;33.26;32.82;99874.66;5029027;28;19912;-84
2022/06/03 07:51:43;;;;;;;;;;;;;;;33.66;33.58;99881.25;5050587;28;19924;-84
2022/06/03 07:54:13;;;;;;;;;;;;;;;33.94;34.14;99880.97;5051122;28;19923;-85
2022/06/03 07:56:39;;;;;;;;;;;;;;;34.22;35.35;99886.94;5051010;28;19916;-84
2022/06/03 07:59:06;;;;;;;;;;;;;;;35.05;35.02;99879.44;5050546;28;20711;-84
2022/06/03 08:01:36;;;;;;;;;;;;;;;34.60;33.53;99876.31;5032833;28;19924;-83
2022/06/03 08:04:02;;;;;;;;;;;;;;;34.03;35.82;99871.72;5050577;28;19917;-83
2022/06/03 08:06:27;;;;;;;;;;;;;;;34.18;34.08;99873.75;5050370;28;20027;-84
2022/06/03 08:11:40;;;;;;;;;;;;;;;34.27;32.96;99874.66;5050703;28;19923;-84
2022/06/03 08:14:06;;;;;;;;;;;;;;;34.05;32.94;99872.41;5050157;28;20873;-84
2022/06/03 08:16:34;;;;;;;;;;;;;;;34.90;32.35;99878.47;5050220;28;19917;-84
2022/06/03 08:19:02;;;;;;;;;;;;;;;35.46;29.13;99879.25;5050369;28;19924;-84
2022/06/03 08:21:49;;;;;;;;;;;;;;;35.53;28.43;99882.16;5050221;28;19927;-84
2022/06/03 08:24:16;;;;;;;;;;;;;;;35.14;28.63;99875.63;5049209;28;20441;-84
2022/06/03 08:26:43;;;;;;;;;;;;;;;35.10;28.52;99884.41;5049671;28;19999;-84
2022/06/03 08:29:13;;;;;;;;;;;;;;;34.74;28.99;99879.34;5049137;28;19916;-85
2022/06/03 08:31:39;;;;;;;;;;;;;;;34.74;30.10;99880.22;5050311;28;19923;-85
2022/06/03 08:34:07;;;;;;;;;;;;;;;35.07;29.98;99873.78;5048831;28;19917;-84
2022/06/03 08:36:36;;;;;;;;;;;;;;;35.86;29.62;99873.72;5050326;28;19912;-85
2022/06/03 08:39:07;;;;;;;;;;;;;;;35.54;30.18;99872.84;5050193;28;19958;-84
2022/06/03 08:41:36;;;;;;;;;;;;;;;35.16;31.42;99872.72;5049926;28;19957;-85
2022/06/03 08:44:23;;;;;;;;;;;;;;;35.07;33.14;99877.38;5050138;28;19916;-83
2022/06/03 08:46:53;;;;;;;;;;;;;;;35.09;30.92;99869.81;5049973;28;19934;-84
2022/06/03 08:49:20;;;;;;;;;;;;;;;35.19;29.45;99868.75;5049045;28;20310;-85
2022/06/03 08:51:56;;;;;;;;;;;;;;;34.77;33.67;99865.31;5048406;28;19917;-84
2022/06/03 08:54:40;;;;;;;;;;;;;;;35.37;29.27;99865.78;5049355;28;20310;-83
2022/06/03 08:57:29;;;;;;;;;;;;;;;35.10;29.15;99859.72;5049130;28;19923;-84
2022/06/03 09:00:02;;;;;;;;;;;;;;;35.36;28.49;99853.09;5048941;28;20405;-85
2022/06/03 09:02:38;;;;;;;;;;;;;;;35.20;30.62;99852.13;5047865;28;19916;-82
2022/06/03 09:05:20;;;;;;;;;;;;;;;34.76;28.07;99838.97;5049604;28;19924;-83
2022/06/03 09:07:53;;;;;;;;;;;;;;;35.15;27.50;99841.69;5048882;28;19917;-84
2022/06/03 09:10:24;;;;;;;;;;;;;;;34.58;29.75;99837.28;5030722;28;19999;-83
2022/06/03 09:13:08;;;;;;;;;;;;;;;34.70;30.80;99837.75;5049427;28;19913;-83
2022/06/03 09:15:36;;;;;;;;;;;;;;;34.06;32.13;99841.28;5048317;28;20357;-82
2022/06/03 09:18:04;;;;;;;;;;;;;;;34.45;28.90;99842.47;5049191;28;19917;-84
2022/06/03 09:20:33;;;;;;;;;;;;;;;34.40;30.36;99847.59;5049147;28;19923;-83
2022/06/03 09:23:00;;;;;;;;;;;;;;;34.36;31.06;99844.34;5030182;28;21249;-83
2022/06/03 09:25:26;;;;;;;;;;;;;;;34.43;29.44;99833.53;5049472;28;19956;-84
2022/06/03 09:27:52;;;;;;;;;;;;;;;34.27;32.92;99836.34;5047972;28;19920;-85
2022/06/03 09:30:31;;;;;;;;;;;;;;;34.57;28.86;99843.78;5048899;28;19913;-83
2022/06/03 09:32:57;;;;;;;;;;;;;;;34.18;30.23;99843.66;5029838;28;20387;-83
2022/06/03 09:35:26;;;;;;;;;;;;;;;34.67;29.14;99838.09;5048913;28;19923;-84
2022/06/03 09:37:54;;;;;;;;;;;;;;;35.19;28.36;99839.47;5048153;28;19912;-85
2022/06/03 09:40:28;;;;;;;;;;;;;;;34.55;27.28;99848.56;5049088;28;19916;-82
2022/06/03 09:42:59;;;;;;;;;;;;;;;34.48;26.37;99842.09;5048100;28;19978;-84
2022/06/03 09:45:25;;;;;;;;;;;;;;;34.58;30.61;99836.44;5047907;28;19920;-83
2022/06/03 09:47:50;;;;;;;;;;;;;;;35.14;28.09;99840.00;5048126;28;20413;-84
2022/06/03 09:50:17;;;;;;;;;;;;;;;35.80;25.25;99839.63;5030149;28;19951;-83
2022/06/03 09:52:43;;;;;;;;;;;;;;;35.50;27.37;99847.69;5048606;28;19960;-83
2022/06/03 09:55:23;;;;;;;;;;;;;;;35.65;29.87;99839.56;5047405;28;19956;-84
2022/06/03 09:57:48;;;;;;;;;;;;;;;35.52;26.04;99839.28;5048396;28;19917;-82
2022/06/03 10:00:15;;;;;;;;;;;;;;;35.13;25.55;99838.28;5048224;28;19924;-84
2022/06/03 10:02:42;;;;;;;;;;;;;;;35.41;28.51;99843.31;5047527;28;19986;-83
2022/06/03 10:05:08;;;;;;;;;;;;;;;35.90;24.93;99835.78;5048013;28;19920;-84
2022/06/03 10:07:34;;;;;;;;;;;;;;;36.15;25.14;99844.66;5047552;28;19982;-82
2022/06/03 10:12:49;;;;;;;;;;;;;;;35.14;24.67;99848.22;5048261;28;19920;-82
2022/06/03 10:18:01;;;;;;;;;;;;;;;34.84;26.94;99855.38;5048155;28;19923;-83
2022/06/03 10:20:27;;;;;;;;;;;;;;;35.42;25.92;99863.34;5048231;28;19921;-83
2022/06/03 10:22:52;;;;;;;;;;;;;;;36.12;24.60;99856.84;5047494;28;20391;-84
2022/06/03 10:25:17;;;;;;;;;;;;;;;36.07;24.88;99858.44;5048379;28;20393;-83
2022/06/03 10:27:46;;;;;;;;;;;;;;;35.48;24.97;99854.38;5048268;28;20583;-83
2022/06/03 10:30:11;;;;;;;;;;;;;;;35.50;25.49;99850.44;5047734;28;19917;-83
2022/06/03 10:32:37;;;;;;;;;;;;;;;35.54;25.48;99850.06;5047306;28;20314;-83
2022/06/03 10:35:13;;;;;;;;;;;;;;;36.35;24.98;99856.00;5047722;28;19967;-83
2022/06/03 10:37:46;;;;;;;;;;;;;;;35.75;24.83;99855.75;5046899;28;19940;-83
2022/06/03 10:40:12;;;;;;;;;;;;;;;35.49;25.39;99843.25;5047710;28;19917;-83
2022/06/03 10:42:40;;;;;;;;;;;;;;;35.19;25.01;99838.59;5029413;28;20302;-81
2022/06/03 10:45:08;;;;;;;;;;;;;;;35.40;27.04;99840.75;5047476;28;20082;-83
2022/06/03 10:47:35;;;;;;;;;;;;;;;35.75;25.75;99836.56;5047148;28;19965;-83
2022/06/03 10:50:04;;;;;;;;;;;;;;;35.23;25.13;99840.78;5047157;28;19917;-83
2022/06/03 11:03:29;;;;;;;;;;;;;;;35.81;24.35;99824.88;5027723;28;19939;-84
2022/06/03 11:05:55;;;;;;;;;;;;;;;36.12;25.19;99823.91;5027876;28;19912;-85
2022/06/03 11:08:21;;;;;;;;;;;;;;;36.05;24.14;99806.47;5027670;28;19992;-85
2022/06/03 11:10:51;;;;;;;;;;;;;;;36.52;24.46;99819.06;5027320;28;20386;-87
2022/06/03 11:13:29;;;;;;;;;;;;;;;36.22;27.82;99812.66;5027271;28;19913;-84
2022/06/03 11:15:55;;;;;;;;;;;;;;;35.99;27.68;99818.19;5027608;28;19917;-83
2022/06/03 11:18:25;;;;;;;;;;;;;;;36.09;26.18;99816.06;5027370;28;19923;-83
2022/06/03 11:20:52;;;;;;;;;;;;;;;35.68;29.09;99805.38;5026909;28;19987;-84
2022/06/03 11:23:18;;;;;;;;;;;;;;;35.52;28.58;99805.53;5027288;28;20004;-84
2022/06/03 11:25:49;;;;;;;;;;;;;;;35.36;27.19;99806.47;5029656;28;19917;-83
2022/06/03 11:28:29;;;;;;;;;;;;;;;35.25;26.61;99805.84;5031968;28;19921;-82
2022/06/03 11:31:00;;;;;;;;;;;;;;;34.95;29.61;99797.44;5031664;28;19924;-83
2022/06/03 11:33:28;;;;;;;;;;;;;;;34.86;31.12;99786.72;5032967;28;19913;-85
2022/06/03 11:35:57;;;;;;;;;;;;;;;35.35;30.16;99786.44;5032050;28;19920;-84
2022/06/03 11:38:28;;;;;;;;;;;;;;;35.31;27.77;99787.84;5030733;28;19913;-84
2022/06/03 11:40:55;;;;;;;;;;;;;;;35.76;30.79;99786.19;5031310;28;19913;-84
2022/06/03 11:43:39;;;;;;;;;;;;;;;36.25;24.45;99782.06;5031170;28;20389;-83
2022/06/03 11:46:07;;;;;;;;;;;;;;;36.70;25.26;99784.84;5030669;28;19920;-83
2022/06/03 11:48:34;;;;;;;;;;;;;;;36.38;24.11;99779.56;5030643;28;20732;-83
2022/06/03 11:51:00;;;;;;;;;;;;;;;36.46;26.69;99784.13;5031119;28;19917;-82
2022/06/03 11:53:28;;;;;;;;;;;;;;;36.09;25.68;99791.34;5013574;28;20718;-83
2022/06/03 11:55:54;;;;;;;;;;;;;;;36.49;26.87;99791.97;5030976;28;20123;-84
2022/06/03 11:58:33;;;;;;;;;;;;;;;36.40;25.12;99784.03;5031026;28;19913;-83
2022/06/03 12:01:03;;;;;;;;;;;;;;;36.91;24.26;99789.59;5030934;28;20008;-84
2022/06/03 12:03:43;;;;;;;;;;;;;;;37.43;22.64;99809.66;5031397;28;19928;-84
2022/06/03 12:06:21;;;;;;;;;;;;;;;36.36;25.10;99836.59;5030203;28;19920;-83
2022/06/03 12:08:50;;;;;;;;;;;;;;;33.25;33.84;99818.25;5030644;28;19917;-84
2022/06/03 12:14:33;;;;;;;;;;;;;;;31.24;39.97;99843.56;5049839;28;19959;-86
2022/06/03 12:17:19;;;;;;;;;;;;;;;30.32;40.54;99818.84;5050193;28;20007;-85
2022/06/03 12:19:44;;;;;;;;;;;;;;;29.87;38.49;99818.63;5048791;28;20480;-83
2022/06/03 12:22:21;;;;;;;;;;;;;;;29.69;40.35;99838.34;5049885;28;19955;-86
2022/06/03 12:24:48;;;;;;;;;;;;;;;30.02;40.18;99835.34;5049554;28;20387;-84
2022/06/03 12:27:17;;;;;;;;;;;;;;;30.00;41.83;99822.75;5050196;28;19924;-85
2022/06/03 12:29:47;;;;;;;;;;;;;;;29.50;43.16;99830.19;5032033;28;20284;-85
2022/06/03 12:32:21;;;;;;;;;;;;;;;29.38;42.56;99851.16;5049493;28;19971;-84
2022/06/03 12:34:46;;;;;;;;;;;;;;;28.80;44.15;99832.84;5050398;28;19920;-86
2022/06/03 12:37:26;;;;;;;;;;;;;;;28.38;46.34;99831.91;5047754;28;19917;-85
2022/06/03 12:55:38;;;;;;;4.28;1.88;;;;;;;27.11;58.50;99776.69;5104583;27;20395;-86
2022/06/03 12:58:37;;;;;;;2.20;1.30;;;;;;;27.40;60.31;99783.38;5105191;28;20044;-85
2022/06/03 13:01:05;;;;;;;3.35;1.85;;;;;;;27.77;59.45;99769.41;5105215;28;20109;-84
2022/06/03 13:03:33;;;;;;;5.88;3.05;;;;;;;28.33;57.28;99807.06;5104918;28;20039;-85
2022/06/03 13:06:03;;;;;;;3.90;2.58;;;;;;;27.68;58.65;99790.00;5104480;28;20120;-83
2022/06/03 13:08:28;;;;;;;3.60;2.03;;;;;;;27.63;59.78;99814.78;5104826;28;20034;-84
2022/06/03 13:11:15;;;;;;;1.90;1.50;;;;;;;27.49;60.50;99802.41;5105153;28;20036;-82
2022/06/03 13:13:49;;;;;;;3.10;1.85;;;;;;;27.31;59.16;99795.78;5104383;28;20036;-82
2022/06/03 13:16:28;;;;;;;2.88;1.80;;;;;;;27.39;60.00;99798.78;5104134;28;20031;-83
2022/06/03 13:18:53;;;;;;;1.95;1.50;;;;;;;27.45;57.78;99795.56;5103399;28;20703;-83
2022/06/03 13:21:21;;;;;;;3.00;1.77;;;;;;;27.15;58.99;99761.88;5104222;28;20031;-83
2022/06/03 13:23:49;;;;;;;3.25;1.80;;;;;;;27.50;58.72;99797.88;5104494;28;20036;-82
2022/06/03 13:26:21;;;;;;;4.60;1.80;;;;;;;27.64;57.03;99794.84;5104013;28;20029;-83
2022/06/03 13:29:06;;;;;;;3.85;2.08;;;;;;;27.57;58.30;99787.38;5104679;28;20043;-85
2022/06/03 13:31:40;;;;;;;1.73;1.30;;;;;;;27.61;60.76;99799.69;5103786;28;20032;-83
2022/06/03 13:34:08;;;;;;;2.70;1.83;;;;;;;27.91;60.60;99793.47;5104594;28;20028;-84
2022/06/03 13:36:34;;;;;;;5.72;2.15;;;;;;;28.22;59.60;99794.44;5104372;28;20060;-85
2022/06/03 13:39:00;;;;;;;2.00;1.75;;;;;;;28.52;60.18;99784.56;5103395;28;20131;-84
2022/06/03 13:44:55;;;;;;;2.95;2.15;;;;;;;28.64;60.51;99793.50;5083394;28;20127;-83
2022/06/03 13:47:23;;;;;;;2.15;1.58;;;;;;;28.81;58.74;99800.16;5103831;28;20046;-84
2022/06/03 13:49:53;;;;;;;2.25;1.77;;;;;;;28.47;59.38;99758.84;5102915;28;20031;-83
2022/06/03 13:52:30;;;;;;;2.95;1.88;;;;;;;28.58;60.72;99770.50;5103650;28;20035;-83
2022/06/03 13:55:24;;;;;;;2.90;1.92;;;;;;;28.78;60.88;99802.25;5097997;28;20060;-84
2022/06/03 13:57:53;;;;;;;4.60;2.30;;;;;;;28.81;58.57;99783.84;5082684;28;20477;-86